ADDS TAF Board (Experimental) INFO Settings
IDs: Format: Expanded Condensed

KATL - Atlanta/Hartsfield-J, GA, US

Issued at 1958 UTC 02 Jul 2015
Updated at: 2128 UTC 02 Jul 2015
Time2052Z 02/22Z 02/23Z 03/00Z 03/01Z 03/02Z 03/03Z 03/04Z 03/05Z 03/06Z 03/07Z 03/08Z 03/09Z 03/10Z
Type OBS PRVL PRVL PRVL PRVL PRVL PRVL PRVL PRVL PRVL PRVL PRVL PRVL PRVL
VIS 10 >6 >6 >6 >6 >6 >6 >6 >6 >6 >6 >6 >6 >6
CIG 250 -- 50 50 50 50 50 50 50 50 50 50 15 15
Cover BKN SCT BKN BKN BKN BKN BKN BKN BKN BKN BKN BKN BKN BKN
FltCat VFR VFR VFR VFR VFR VFR VFR VFR VFR VFR VFR VFR MVFR MVFR
WX -- VCSH -- -- -- -- -- -- -- -- -- -- -- --
WDir 280 250 240 240 240 240 240 240 240 240 240 240 230 230
WSpd 13 10 7 7 7 7 7 7 7 7 7 7 8 8
WGst -- 15 -- -- -- -- -- -- -- -- -- -- -- --
R08/26
XWnd 2 -3 -3 -3 -3 -3 -3 -3 -3 -3 -3 -3 -5 -5
XGst -- -5 -- -- -- -- -- -- -- -- -- -- -- --
HWnd -13 -9 -6 -6 -6 -6 -6 -6 -6 -6 -6 -6 -6 -6
HGst -- -14 -- -- -- -- -- -- -- -- -- -- -- --
R09/27
XWnd 2 -3 -3 -3 -3 -3 -3 -3 -3 -3 -3 -3 -5 -5
XGst -- -5 -- -- -- -- -- -- -- -- -- -- -- --
HWnd -13 -9 -6 -6 -6 -6 -6 -6 -6 -6 -6 -6 -6 -6
HGst -- -14 -- -- -- -- -- -- -- -- -- -- -- --
R10/28
XWnd 2 -3 -3 -3 -3 -3 -3 -3 -3 -3 -3 -3 -5 -5
XGst -- -5 -- -- -- -- -- -- -- -- -- -- -- --
HWnd -13 -9 -6 -6 -6 -6 -6 -6 -6 -6 -6 -6 -6 -6
HGst -- -14 -- -- -- -- -- -- -- -- -- -- -- --

NOTE: TEMPO conditions in [brackets]. Keep in mind TEMPO conditions might be better (lower impact) than prevailing conditions.

Raw TAF
KATL 021958Z 0220/0324 25010G15KT P6SM VCSH SCT040 SCT250
  TEMPO 0220/0222 VRB15G25KT 6SM TSRA BKN035CB
  FM022300 24007KT P6SM BKN050 BKN100
  FM030900 23008KT P6SM BKN015
  FM031400 25011KT P6SM BKN025 BKN250
  FM031600 26012G18KT P6SM SCT050 BKN250
  PROB30 0318/0323 6SM TSRA BKN035CB


Raw METAR
KATL 022052Z 28013KT 10SM FEW035 SCT085 BKN250 29/20 A2998 RMK AO2 SLP141 CB DSNT NE-E 60014 T02890200 58004
KATL 021952Z 28013KT 10SM FEW040 BKN180 BKN250 29/22 A2998 RMK AO2 SLP143 CB DSNT N-NE-E TCU DSNT NW T02940217
KATL 021852Z 26006KT 10SM FEW030TCU SCT060 BKN250 27/22 A2999 RMK AO2 TSB18E45RAB22E45 SLP145 CB DSNT E TS MOV E TCU SE-SW SHRA DSNT E P0014 T02720222
KATL 021835Z 32008G20KT 8SM R09R/3500VP6000FT -TSRA BKN030CB BKN070 BKN250 24/21 A3000 RMK AO2 TSB18RAB22 VIS LWR NE-SE SHRA OCNL LTGIC NE-SE TS NE-SE MOV E P0013 $

METAR Board
Radar Display
Forecast Discussion

TAF Board Legend

Potential Impact
Threat None Slight Moderate High
Visibility (sm) ≥5.1 5.1>X≥3 3>X≥1 <1
Ceiling (100 ft) ≥30.1 30.1>X≥10 10>X≥5 <5
Wind Speed (kt) <10 10≤X<20 20≤X<30 ≥30
Wind Gust (kt) <15 15≤X<25 25≤X<35 ≥35
Weather No Wx Reported VCTS,-TS,-FZRA,SN TS,FZRA +TS,+FZRA,+SN